Angler Guide Weather for Cheticamp -
Cheticamp, Nova Scotia Current Weather Conditions
Enter your "Place, State", US Zip Code or ICAO:  
Forecast Information Radar Information
Cheticamp, Nova Scotia, Canada  Lat: 46.65N, Lon: 60.95W
ICAO Used: CYGR
Current Conditions
Updated:
Sun & Moon Information:
Temp: N/A
Humidity: N/A
Wind Speed: N/A
Barometer: N/A
Dewpoint: N/A
Heat Index: N/A
Wind Chill: N/A
Civil Twilight: 7:04 AM AST
Moonrise: 3:47 AM AST Moon Phase:
Waning Crescent Moon
Waning Crescent Moon
Moonset: 2:34 PM AST
Sunrise: 7:39 AM AST
Sunset: 4:15 PM AST
Civil Twilight: 4:50 PM AST
Forecast for Cheticamp, NS:
(Forecast based on TAF for )
0339 PM AST MON NOV 06 2006
  
AFTERNOONEVENINGOVERNIGHT
(?:MOSTLY CLOUDY(?:MOSTLY CLOUDYMOSTLY CLOUDY
(?:Mostly
Cloudy
(?:Mostly
Cloudy
Mostly
Cloudy
TAF based forecast:
Dated: 0339 PM AST MON NOV 06 2006
Afternoon...Mostly cloudy with winds from the west at 6 mph. Possible periods of mostly cloudy with light showers,snow,rain and mist.
Evening...Mostly cloudy with winds from the west at 6 mph. Then becoming mostly cloudy with winds variable at 3 mph. Possible periods of mostly cloudy with light showers,snow,rain and mist.
Overnight...Mostly cloudy with winds variable at 3 mph.
Original Encoded TAF:
Dated: 0339 PM AST MON NOV 06 2006
2006/11/06 19:39
CYGR 061939Z 062003 28005KT P6SM BKN025 TEMPO 2001 5SM -SHSNRA BR BKN020 BECMG 2301 VRB03KT=




Powered by Angler Guide.com
Copyright 2007, all rights reserved.